sensor_id;sensor_type;location;lat;lon;timestamp;P1;durP1;ratioP1;P2;durP2;ratioP2
45540;SDS011;31265;49.680;8.608;2023-04-25T00:01:40;4.63;;;1.65;;
45540;SDS011;31265;49.680;8.608;2023-04-25T00:04:12;3.33;;;1.77;;
45540;SDS011;31265;49.680;8.608;2023-04-25T00:06:41;2.75;;;1.30;;
45540;SDS011;31265;49.680;8.608;2023-04-25T00:09:09;2.95;;;1.52;;
45540;SDS011;31265;49.680;8.608;2023-04-25T00:11:39;2.97;;;1.35;;
45540;SDS011;31265;49.680;8.608;2023-04-25T00:16:36;2.72;;;1.48;;
45540;SDS011;31265;49.680;8.608;2023-04-25T00:19:05;3.38;;;1.90;;
45540;SDS011;31265;49.680;8.608;2023-04-25T00:21:35;3.83;;;1.20;;
45540;SDS011;31265;49.680;8.608;2023-04-25T00:24:05;6.00;;;1.83;;
45540;SDS011;31265;49.680;8.608;2023-04-25T00:26:34;4.03;;;2.03;;
45540;SDS011;31265;49.680;8.608;2023-04-25T00:29:03;3.05;;;1.52;;
45540;SDS011;31265;49.680;8.608;2023-04-25T00:31:34;6.97;;;2.15;;
45540;SDS011;31265;49.680;8.608;2023-04-25T00:34:03;3.33;;;1.90;;
45540;SDS011;31265;49.680;8.608;2023-04-25T00:36:32;3.88;;;1.83;;
45540;SDS011;31265;49.680;8.608;2023-04-25T00:39:02;6.57;;;2.42;;
45540;SDS011;31265;49.680;8.608;2023-04-25T00:41:32;2.42;;;1.33;;
45540;SDS011;31265;49.680;8.608;2023-04-25T00:44:03;4.60;;;1.27;;
45540;SDS011;31265;49.680;8.608;2023-04-25T00:46:38;4.40;;;2.30;;
45540;SDS011;31265;49.680;8.608;2023-04-25T00:49:06;5.22;;;2.55;;
45540;SDS011;31265;49.680;8.608;2023-04-25T00:51:36;3.50;;;1.88;;
45540;SDS011;31265;49.680;8.608;2023-04-25T00:54:06;4.55;;;2.13;;
45540;SDS011;31265;49.680;8.608;2023-04-25T00:56:37;3.88;;;2.08;;
45540;SDS011;31265;49.680;8.608;2023-04-25T00:59:06;5.57;;;2.33;;
45540;SDS011;31265;49.680;8.608;2023-04-25T01:01:39;3.45;;;2.13;;
45540;SDS011;31265;49.680;8.608;2023-04-25T01:04:11;5.05;;;2.13;;
45540;SDS011;31265;49.680;8.608;2023-04-25T01:06:39;8.43;;;2.13;;
45540;SDS011;31265;49.680;8.608;2023-04-25T01:11:40;4.03;;;2.25;;
45540;SDS011;31265;49.680;8.608;2023-04-25T01:14:08;7.45;;;2.53;;
45540;SDS011;31265;49.680;8.608;2023-04-25T01:16:36;6.03;;;2.53;;
45540;SDS011;31265;49.680;8.608;2023-04-25T01:19:06;4.07;;;2.10;;
45540;SDS011;31265;49.680;8.608;2023-04-25T01:21:40;4.28;;;2.22;;
45540;SDS011;31265;49.680;8.608;2023-04-25T01:24:08;5.97;;;2.42;;
45540;SDS011;31265;49.680;8.608;2023-04-25T01:26:37;3.67;;;2.10;;
45540;SDS011;31265;49.680;8.608;2023-04-25T01:29:09;4.80;;;2.47;;
45540;SDS011;31265;49.680;8.608;2023-04-25T01:31:39;6.45;;;2.70;;
45540;SDS011;31265;49.680;8.608;2023-04-25T01:34:08;4.20;;;2.10;;
45540;SDS011;31265;49.680;8.608;2023-04-25T01:36:36;5.93;;;2.45;;
45540;SDS011;31265;49.680;8.608;2023-04-25T01:39:07;5.97;;;2.13;;
45540;SDS011;31265;49.680;8.608;2023-04-25T01:41:35;5.55;;;2.38;;
45540;SDS011;31265;49.680;8.608;2023-04-25T01:44:04;4.13;;;2.00;;
45540;SDS011;31265;49.680;8.608;2023-04-25T01:46:32;3.95;;;2.17;;
45540;SDS011;31265;49.680;8.608;2023-04-25T01:49:02;5.85;;;3.45;;
45540;SDS011;31265;49.680;8.608;2023-04-25T01:51:32;4.32;;;2.58;;
45540;SDS011;31265;49.680;8.608;2023-04-25T01:54:01;5.20;;;2.53;;
45540;SDS011;31265;49.680;8.608;2023-04-25T01:56:36;5.35;;;2.90;;
45540;SDS011;31265;49.680;8.608;2023-04-25T01:59:07;4.65;;;2.08;;
45540;SDS011;31265;49.680;8.608;2023-04-25T02:02:10;5.28;;;2.35;;
45540;SDS011;31265;49.680;8.608;2023-04-25T02:04:39;6.43;;;3.35;;
45540;SDS011;31265;49.680;8.608;2023-04-25T02:07:10;5.68;;;2.50;;
45540;SDS011;31265;49.680;8.608;2023-04-25T02:09:47;5.38;;;2.55;;
45540;SDS011;31265;49.680;8.608;2023-04-25T02:12:19;6.32;;;3.20;;
45540;SDS011;31265;49.680;8.608;2023-04-25T02:15:06;6.90;;;3.05;;
45540;SDS011;31265;49.680;8.608;2023-04-25T02:17:55;5.40;;;2.90;;
45540;SDS011;31265;49.680;8.608;2023-04-25T02:20:24;6.60;;;2.60;;
45540;SDS011;31265;49.680;8.608;2023-04-25T02:22:53;6.07;;;2.78;;
45540;SDS011;31265;49.680;8.608;2023-04-25T02:25:21;11.25;;;3.55;;
45540;SDS011;31265;49.680;8.608;2023-04-25T02:27:51;6.57;;;3.03;;
45540;SDS011;31265;49.680;8.608;2023-04-25T02:30:20;5.60;;;2.70;;
45540;SDS011;31265;49.680;8.608;2023-04-25T02:32:49;6.72;;;3.00;;
45540;SDS011;31265;49.680;8.608;2023-04-25T02:35:17;4.78;;;2.40;;
45540;SDS011;31265;49.680;8.608;2023-04-25T02:37:46;5.10;;;2.60;;
45540;SDS011;31265;49.680;8.608;2023-04-25T02:40:15;7.32;;;3.00;;
45540;SDS011;31265;49.680;8.608;2023-04-25T02:42:43;5.82;;;2.85;;
45540;SDS011;31265;49.680;8.608;2023-04-25T02:45:14;5.85;;;2.80;;
45540;SDS011;31265;49.680;8.608;2023-04-25T02:47:42;5.97;;;3.00;;
45540;SDS011;31265;49.680;8.608;2023-04-25T02:50:11;5.68;;;2.65;;
45540;SDS011;31265;49.680;8.608;2023-04-25T02:52:40;9.32;;;3.20;;
45540;SDS011;31265;49.680;8.608;2023-04-25T02:55:14;6.10;;;2.80;;
45540;SDS011;31265;49.680;8.608;2023-04-25T03:00:21;7.97;;;3.55;;
45540;SDS011;31265;49.680;8.608;2023-04-25T03:02:50;6.95;;;3.33;;
45540;SDS011;31265;49.680;8.608;2023-04-25T03:05:19;5.80;;;2.57;;
45540;SDS011;31265;49.680;8.608;2023-04-25T03:07:47;7.85;;;3.10;;
45540;SDS011;31265;49.680;8.608;2023-04-25T03:10:16;4.75;;;2.58;;
45540;SDS011;31265;49.680;8.608;2023-04-25T03:12:45;6.53;;;3.03;;
45540;SDS011;31265;49.680;8.608;2023-04-25T03:15:14;6.38;;;3.50;;
45540;SDS011;31265;49.680;8.608;2023-04-25T03:17:46;5.95;;;3.38;;
45540;SDS011;31265;49.680;8.608;2023-04-25T03:20:15;5.25;;;2.70;;
45540;SDS011;31265;49.680;8.608;2023-04-25T03:22:44;6.85;;;3.30;;
45540;SDS011;31265;49.680;8.608;2023-04-25T03:25:13;6.32;;;2.83;;
45540;SDS011;31265;49.680;8.608;2023-04-25T03:27:42;5.90;;;3.22;;
45540;SDS011;31265;49.680;8.608;2023-04-25T03:30:12;7.67;;;3.50;;
45540;SDS011;31265;49.680;8.608;2023-04-25T03:32:43;7.28;;;3.67;;
45540;SDS011;31265;49.680;8.608;2023-04-25T03:35:17;6.05;;;3.33;;
45540;SDS011;31265;49.680;8.608;2023-04-25T03:37:45;5.32;;;2.83;;
45540;SDS011;31265;49.680;8.608;2023-04-25T03:40:19;5.93;;;3.28;;
45540;SDS011;31265;49.680;8.608;2023-04-25T03:43:10;6.68;;;3.10;;
45540;SDS011;31265;49.680;8.608;2023-04-25T03:45:45;6.20;;;3.22;;
45540;SDS011;31265;49.680;8.608;2023-04-25T03:48:18;7.03;;;3.15;;
45540;SDS011;31265;49.680;8.608;2023-04-25T03:50:50;6.38;;;2.85;;
45540;SDS011;31265;49.680;8.608;2023-04-25T03:53:19;7.75;;;2.92;;
45540;SDS011;31265;49.680;8.608;2023-04-25T03:56:06;6.72;;;3.33;;
45540;SDS011;31265;49.680;8.608;2023-04-25T03:58:37;4.75;;;2.63;;
45540;SDS011;31265;49.680;8.608;2023-04-25T04:01:07;5.13;;;2.45;;
45540;SDS011;31265;49.680;8.608;2023-04-25T04:03:37;5.43;;;2.72;;
45540;SDS011;31265;49.680;8.608;2023-04-25T04:06:07;6.00;;;2.60;;
45540;SDS011;31265;49.680;8.608;2023-04-25T04:08:43;6.20;;;3.13;;
45540;SDS011;31265;49.680;8.608;2023-04-25T04:11:12;6.60;;;2.78;;
45540;SDS011;31265;49.680;8.608;2023-04-25T04:13:41;6.13;;;3.07;;
45540;SDS011;31265;49.680;8.608;2023-04-25T04:16:10;7.82;;;2.92;;
45540;SDS011;31265;49.680;8.608;2023-04-25T04:18:38;7.40;;;3.27;;
45540;SDS011;31265;49.680;8.608;2023-04-25T04:21:08;6.72;;;3.38;;
45540;SDS011;31265;49.680;8.608;2023-04-25T04:23:39;7.35;;;3.55;;
45540;SDS011;31265;49.680;8.608;2023-04-25T04:26:09;7.07;;;3.63;;
45540;SDS011;31265;49.680;8.608;2023-04-25T04:29:01;5.95;;;3.00;;
45540;SDS011;31265;49.680;8.608;2023-04-25T04:31:50;8.40;;;3.90;;
45540;SDS011;31265;49.680;8.608;2023-04-25T04:34:20;6.60;;;3.97;;
45540;SDS011;31265;49.680;8.608;2023-04-25T04:36:50;5.32;;;2.90;;
45540;SDS011;31265;49.680;8.608;2023-04-25T04:39:19;7.22;;;3.63;;
45540;SDS011;31265;49.680;8.608;2023-04-25T04:41:59;8.52;;;3.78;;
45540;SDS011;31265;49.680;8.608;2023-04-25T04:45:00;5.95;;;3.25;;
45540;SDS011;31265;49.680;8.608;2023-04-25T04:47:45;5.82;;;2.92;;
45540;SDS011;31265;49.680;8.608;2023-04-25T04:50:38;5.68;;;3.00;;
45540;SDS011;31265;49.680;8.608;2023-04-25T04:53:27;6.95;;;3.15;;
45540;SDS011;31265;49.680;8.608;2023-04-25T04:56:08;8.88;;;3.90;;
45540;SDS011;31265;49.680;8.608;2023-04-25T04:58:53;6.50;;;3.10;;
45540;SDS011;31265;49.680;8.608;2023-04-25T05:01:22;7.82;;;3.50;;
45540;SDS011;31265;49.680;8.608;2023-04-25T05:03:58;6.53;;;2.90;;
45540;SDS011;31265;49.680;8.608;2023-04-25T05:06:54;7.30;;;3.55;;
45540;SDS011;31265;49.680;8.608;2023-04-25T05:09:47;7.18;;;3.35;;
45540;SDS011;31265;49.680;8.608;2023-04-25T05:12:54;10.35;;;3.78;;
45540;SDS011;31265;49.680;8.608;2023-04-25T05:15:41;11.60;;;3.85;;
45540;SDS011;31265;49.680;8.608;2023-04-25T05:18:12;6.47;;;3.10;;
45540;SDS011;31265;49.680;8.608;2023-04-25T05:20:45;7.03;;;3.28;;
45540;SDS011;31265;49.680;8.608;2023-04-25T05:23:34;13.60;;;3.83;;
45540;SDS011;31265;49.680;8.608;2023-04-25T05:26:17;7.15;;;3.47;;
45540;SDS011;31265;49.680;8.608;2023-04-25T05:28:59;6.60;;;3.42;;
45540;SDS011;31265;49.680;8.608;2023-04-25T05:31:30;8.60;;;3.58;;
45540;SDS011;31265;49.680;8.608;2023-04-25T05:34:03;7.43;;;3.60;;
45540;SDS011;31265;49.680;8.608;2023-04-25T05:36:50;8.38;;;3.97;;
45540;SDS011;31265;49.680;8.608;2023-04-25T05:39:19;8.32;;;4.32;;
45540;SDS011;31265;49.680;8.608;2023-04-25T05:42:28;7.15;;;3.92;;
45540;SDS011;31265;49.680;8.608;2023-04-25T05:45:19;5.85;;;3.28;;
45540;SDS011;31265;49.680;8.608;2023-04-25T05:47:59;6.70;;;3.40;;
45540;SDS011;31265;49.680;8.608;2023-04-25T05:50:43;6.20;;;3.50;;
45540;SDS011;31265;49.680;8.608;2023-04-25T05:53:24;6.28;;;3.03;;
45540;SDS011;31265;49.680;8.608;2023-04-25T05:56:13;8.75;;;3.40;;
45540;SDS011;31265;49.680;8.608;2023-04-25T05:58:52;9.30;;;3.63;;
45540;SDS011;31265;49.680;8.608;2023-04-25T06:03:49;7.30;;;3.15;;
45540;SDS011;31265;49.680;8.608;2023-04-25T06:06:20;5.00;;;2.90;;
45540;SDS011;31265;49.680;8.608;2023-04-25T06:08:49;7.80;;;2.08;;
45540;SDS011;31265;49.680;8.608;2023-04-25T06:11:18;5.95;;;3.22;;
45540;SDS011;31265;49.680;8.608;2023-04-25T06:13:47;7.30;;;2.80;;
45540;SDS011;31265;49.680;8.608;2023-04-25T06:16:17;7.35;;;2.08;;
45540;SDS011;31265;49.680;8.608;2023-04-25T06:18:45;7.05;;;2.78;;
45540;SDS011;31265;49.680;8.608;2023-04-25T06:21:15;9.63;;;2.67;;
45540;SDS011;31265;49.680;8.608;2023-04-25T06:23:43;5.43;;;2.50;;
45540;SDS011;31265;49.680;8.608;2023-04-25T06:26:18;6.43;;;2.70;;
45540;SDS011;31265;49.680;8.608;2023-04-25T06:28:48;9.57;;;2.35;;
45540;SDS011;31265;49.680;8.608;2023-04-25T06:31:18;10.10;;;2.80;;
45540;SDS011;31265;49.680;8.608;2023-04-25T06:33:48;5.10;;;2.25;;
45540;SDS011;31265;49.680;8.608;2023-04-25T06:36:18;9.70;;;2.97;;
45540;SDS011;31265;49.680;8.608;2023-04-25T06:38:54;9.07;;;2.78;;
45540;SDS011;31265;49.680;8.608;2023-04-25T06:41:22;7.82;;;3.13;;
45540;SDS011;31265;49.680;8.608;2023-04-25T06:43:53;7.53;;;3.22;;
45540;SDS011;31265;49.680;8.608;2023-04-25T06:46:36;7.47;;;2.72;;
45540;SDS011;31265;49.680;8.608;2023-04-25T06:49:05;8.50;;;2.58;;
45540;SDS011;31265;49.680;8.608;2023-04-25T06:51:35;12.48;;;3.55;;
45540;SDS011;31265;49.680;8.608;2023-04-25T06:54:04;6.00;;;2.23;;
45540;SDS011;31265;49.680;8.608;2023-04-25T06:56:45;12.68;;;2.58;;
45540;SDS011;31265;49.680;8.608;2023-04-25T06:59:14;11.55;;;3.10;;
45540;SDS011;31265;49.680;8.608;2023-04-25T07:01:46;6.88;;;3.35;;
45540;SDS011;31265;49.680;8.608;2023-04-25T07:04:18;9.27;;;2.67;;
45540;SDS011;31265;49.680;8.608;2023-04-25T07:06:52;4.65;;;2.35;;
45540;SDS011;31265;49.680;8.608;2023-04-25T07:09:28;6.05;;;2.53;;
45540;SDS011;31265;49.680;8.608;2023-04-25T07:12:00;7.30;;;2.33;;
45540;SDS011;31265;49.680;8.608;2023-04-25T07:14:30;8.70;;;2.40;;
45540;SDS011;31265;49.680;8.608;2023-04-25T07:17:00;5.28;;;2.20;;
45540;SDS011;31265;49.680;8.608;2023-04-25T07:19:31;5.18;;;2.17;;
45540;SDS011;31265;49.680;8.608;2023-04-25T07:24:30;5.82;;;2.55;;
45540;SDS011;31265;49.680;8.608;2023-04-25T07:26:59;5.50;;;2.10;;
45540;SDS011;31265;49.680;8.608;2023-04-25T07:29:34;5.35;;;2.15;;
45540;SDS011;31265;49.680;8.608;2023-04-25T07:32:06;7.22;;;1.98;;
45540;SDS011;31265;49.680;8.608;2023-04-25T07:34:37;7.35;;;3.28;;
45540;SDS011;31265;49.680;8.608;2023-04-25T07:37:06;6.88;;;2.97;;
45540;SDS011;31265;49.680;8.608;2023-04-25T07:39:46;4.95;;;2.40;;
45540;SDS011;31265;49.680;8.608;2023-04-25T07:42:15;5.93;;;2.40;;
45540;SDS011;31265;49.680;8.608;2023-04-25T07:44:45;8.30;;;2.55;;
45540;SDS011;31265;49.680;8.608;2023-04-25T07:47:17;7.88;;;2.72;;
45540;SDS011;31265;49.680;8.608;2023-04-25T07:49:46;4.80;;;1.70;;
45540;SDS011;31265;49.680;8.608;2023-04-25T07:54:50;9.35;;;2.72;;
45540;SDS011;31265;49.680;8.608;2023-04-25T07:57:25;8.00;;;1.83;;
45540;SDS011;31265;49.680;8.608;2023-04-25T07:59:57;7.20;;;1.90;;
45540;SDS011;31265;49.680;8.608;2023-04-25T08:02:28;11.13;;;2.60;;
45540;SDS011;31265;49.680;8.608;2023-04-25T08:04:57;8.88;;;2.30;;
45540;SDS011;31265;49.680;8.608;2023-04-25T08:07:25;5.32;;;2.75;;
45540;SDS011;31265;49.680;8.608;2023-04-25T08:09:56;6.05;;;2.25;;
45540;SDS011;31265;49.680;8.608;2023-04-25T08:12:29;11.10;;;2.40;;
45540;SDS011;31265;49.680;8.608;2023-04-25T08:14:58;6.70;;;1.95;;
45540;SDS011;31265;49.680;8.608;2023-04-25T08:17:33;8.45;;;2.25;;
45540;SDS011;31265;49.680;8.608;2023-04-25T08:22:33;3.25;;;1.65;;
45540;SDS011;31265;49.680;8.608;2023-04-25T08:25:28;7.63;;;2.58;;
45540;SDS011;31265;49.680;8.608;2023-04-25T08:27:56;5.88;;;1.98;;
45540;SDS011;31265;49.680;8.608;2023-04-25T08:30:26;3.35;;;1.45;;
45540;SDS011;31265;49.680;8.608;2023-04-25T08:32:58;3.70;;;1.40;;
45540;SDS011;31265;49.680;8.608;2023-04-25T08:35:47;7.97;;;2.13;;
45540;SDS011;31265;49.680;8.608;2023-04-25T08:38:16;8.30;;;1.77;;
45540;SDS011;31265;49.680;8.608;2023-04-25T08:40:44;6.45;;;2.15;;
45540;SDS011;31265;49.680;8.608;2023-04-25T08:43:22;4.25;;;1.75;;
45540;SDS011;31265;49.680;8.608;2023-04-25T08:45:51;3.65;;;1.52;;
45540;SDS011;31265;49.680;8.608;2023-04-25T08:48:33;8.10;;;1.80;;
45540;SDS011;31265;49.680;8.608;2023-04-25T08:51:04;4.40;;;1.48;;
45540;SDS011;31265;49.680;8.608;2023-04-25T08:53:36;3.28;;;1.60;;
45540;SDS011;31265;49.680;8.608;2023-04-25T08:56:04;4.85;;;1.95;;
45540;SDS011;31265;49.680;8.608;2023-04-25T08:58:36;5.78;;;2.13;;
45540;SDS011;31265;49.680;8.608;2023-04-25T09:01:05;5.03;;;2.03;;
45540;SDS011;31265;49.680;8.608;2023-04-25T09:03:44;5.07;;;2.28;;
45540;SDS011;31265;49.680;8.608;2023-04-25T09:06:14;5.75;;;1.80;;
45540;SDS011;31265;49.680;8.608;2023-04-25T09:08:45;4.88;;;1.98;;
45540;SDS011;31265;49.680;8.608;2023-04-25T09:11:14;7.03;;;1.83;;
45540;SDS011;31265;49.680;8.608;2023-04-25T09:13:43;3.08;;;1.35;;
45540;SDS011;31265;49.680;8.608;2023-04-25T09:16:31;5.75;;;2.08;;
45540;SDS011;31265;49.680;8.608;2023-04-25T09:19:22;6.53;;;1.70;;
45540;SDS011;31265;49.680;8.608;2023-04-25T09:22:11;7.60;;;2.20;;
45540;SDS011;31265;49.680;8.608;2023-04-25T09:24:40;2.35;;;1.48;;
45540;SDS011;31265;49.680;8.608;2023-04-25T09:27:11;4.97;;;1.67;;
45540;SDS011;31265;49.680;8.608;2023-04-25T09:29:46;8.07;;;1.80;;
45540;SDS011;31265;49.680;8.608;2023-04-25T09:34:49;6.45;;;1.48;;
45540;SDS011;31265;49.680;8.608;2023-04-25T09:37:19;3.72;;;1.50;;
45540;SDS011;31265;49.680;8.608;2023-04-25T09:40:07;7.10;;;2.15;;
45540;SDS011;31265;49.680;8.608;2023-04-25T09:42:57;3.20;;;1.60;;
45540;SDS011;31265;49.680;8.608;2023-04-25T09:45:26;4.28;;;1.58;;
45540;SDS011;31265;49.680;8.608;2023-04-25T09:48:02;2.75;;;1.40;;
45540;SDS011;31265;49.680;8.608;2023-04-25T09:50:33;3.90;;;1.67;;
45540;SDS011;31265;49.680;8.608;2023-04-25T09:53:07;5.10;;;1.40;;
45540;SDS011;31265;49.680;8.608;2023-04-25T09:55:52;1.92;;;1.13;;
45540;SDS011;31265;49.680;8.608;2023-04-25T09:58:20;3.42;;;1.63;;
45540;SDS011;31265;49.680;8.608;2023-04-25T10:00:51;2.85;;;0.82;;
45540;SDS011;31265;49.680;8.608;2023-04-25T10:03:36;6.82;;;2.00;;
45540;SDS011;31265;49.680;8.608;2023-04-25T10:06:20;5.82;;;1.50;;
45540;SDS011;31265;49.680;8.608;2023-04-25T10:08:53;4.40;;;0.80;;
45540;SDS011;31265;49.680;8.608;2023-04-25T10:11:22;3.55;;;0.85;;
45540;SDS011;31265;49.680;8.608;2023-04-25T10:13:53;4.18;;;1.13;;
45540;SDS011;31265;49.680;8.608;2023-04-25T10:16:23;3.60;;;1.17;;
45540;SDS011;31265;49.680;8.608;2023-04-25T10:21:22;3.08;;;1.30;;
45540;SDS011;31265;49.680;8.608;2023-04-25T10:23:54;3.70;;;0.73;;
45540;SDS011;31265;49.680;8.608;2023-04-25T10:26:23;2.83;;;1.35;;
45540;SDS011;31265;49.680;8.608;2023-04-25T10:28:55;2.95;;;0.93;;
45540;SDS011;31265;49.680;8.608;2023-04-25T10:31:24;1.65;;;0.90;;
45540;SDS011;31265;49.680;8.608;2023-04-25T10:33:53;2.63;;;0.63;;
45540;SDS011;31265;49.680;8.608;2023-04-25T10:36:24;6.53;;;1.20;;
45540;SDS011;31265;49.680;8.608;2023-04-25T10:38:53;2.00;;;0.82;;
45540;SDS011;31265;49.680;8.608;2023-04-25T10:41:22;1.45;;;0.65;;
45540;SDS011;31265;49.680;8.608;2023-04-25T10:43:58;2.80;;;1.00;;
45540;SDS011;31265;49.680;8.608;2023-04-25T10:46:29;2.50;;;0.70;;
45540;SDS011;31265;49.680;8.608;2023-04-25T10:48:58;3.38;;;1.15;;
45540;SDS011;31265;49.680;8.608;2023-04-25T10:51:29;4.55;;;1.17;;
45540;SDS011;31265;49.680;8.608;2023-04-25T10:54:21;2.50;;;1.02;;
45540;SDS011;31265;49.680;8.608;2023-04-25T10:56:52;5.05;;;1.40;;
45540;SDS011;31265;49.680;8.608;2023-04-25T10:59:22;3.70;;;0.93;;
45540;SDS011;31265;49.680;8.608;2023-04-25T11:01:52;3.17;;;1.00;;
45540;SDS011;31265;49.680;8.608;2023-04-25T11:04:22;5.18;;;0.82;;
45540;SDS011;31265;49.680;8.608;2023-04-25T11:07:00;2.38;;;0.95;;
45540;SDS011;31265;49.680;8.608;2023-04-25T11:09:38;3.40;;;1.65;;
45540;SDS011;31265;49.680;8.608;2023-04-25T11:12:08;4.05;;;1.08;;
45540;SDS011;31265;49.680;8.608;2023-04-25T11:14:38;2.10;;;0.98;;
45540;SDS011;31265;49.680;8.608;2023-04-25T11:17:06;2.25;;;1.13;;
45540;SDS011;31265;49.680;8.608;2023-04-25T11:19:35;2.53;;;1.30;;
45540;SDS011;31265;49.680;8.608;2023-04-25T11:22:05;5.00;;;1.50;;
45540;SDS011;31265;49.680;8.608;2023-04-25T11:24:35;3.38;;;1.23;;
45540;SDS011;31265;49.680;8.608;2023-04-25T11:27:04;3.20;;;0.90;;
45540;SDS011;31265;49.680;8.608;2023-04-25T11:32:02;2.45;;;1.05;;
45540;SDS011;31265;49.680;8.608;2023-04-25T11:34:31;2.15;;;0.90;;
45540;SDS011;31265;49.680;8.608;2023-04-25T11:37:00;5.05;;;1.15;;
45540;SDS011;31265;49.680;8.608;2023-04-25T11:39:31;2.92;;;0.95;;
45540;SDS011;31265;49.680;8.608;2023-04-25T11:41:59;4.00;;;1.00;;
45540;SDS011;31265;49.680;8.608;2023-04-25T11:44:33;4.68;;;1.58;;
45540;SDS011;31265;49.680;8.608;2023-04-25T11:47:02;3.05;;;1.30;;
45540;SDS011;31265;49.680;8.608;2023-04-25T11:49:30;5.50;;;1.02;;
45540;SDS011;31265;49.680;8.608;2023-04-25T11:51:59;6.20;;;1.07;;
45540;SDS011;31265;49.680;8.608;2023-04-25T11:54:27;2.95;;;1.13;;
45540;SDS011;31265;49.680;8.608;2023-04-25T11:56:56;2.40;;;1.23;;
45540;SDS011;31265;49.680;8.608;2023-04-25T11:59:25;2.72;;;1.08;;
45540;SDS011;31265;49.680;8.608;2023-04-25T12:01:55;2.40;;;1.10;;
45540;SDS011;31265;49.680;8.608;2023-04-25T12:04:24;4.63;;;2.08;;
45540;SDS011;31265;49.680;8.608;2023-04-25T12:06:54;2.45;;;1.10;;
45540;SDS011;31265;49.680;8.608;2023-04-25T12:09:27;2.70;;;1.20;;
45540;SDS011;31265;49.680;8.608;2023-04-25T12:11:58;2.75;;;0.80;;
45540;SDS011;31265;49.680;8.608;2023-04-25T12:14:30;4.43;;;1.42;;
45540;SDS011;31265;49.680;8.608;2023-04-25T12:17:00;3.85;;;1.00;;
45540;SDS011;31265;49.680;8.608;2023-04-25T12:19:33;5.78;;;1.63;;
45540;SDS011;31265;49.680;8.608;2023-04-25T12:22:03;5.72;;;1.23;;
45540;SDS011;31265;49.680;8.608;2023-04-25T12:24:46;5.03;;;1.30;;
45540;SDS011;31265;49.680;8.608;2023-04-25T12:27:16;3.53;;;1.30;;
45540;SDS011;31265;49.680;8.608;2023-04-25T12:29:50;3.80;;;1.30;;
45540;SDS011;31265;49.680;8.608;2023-04-25T12:32:19;4.60;;;1.50;;
45540;SDS011;31265;49.680;8.608;2023-04-25T12:34:47;6.25;;;1.60;;
45540;SDS011;31265;49.680;8.608;2023-04-25T12:37:15;2.08;;;1.13;;
45540;SDS011;31265;49.680;8.608;2023-04-25T12:39:44;2.85;;;1.50;;
45540;SDS011;31265;49.680;8.608;2023-04-25T12:42:12;7.72;;;1.80;;
45540;SDS011;31265;49.680;8.608;2023-04-25T12:44:42;2.70;;;1.48;;
45540;SDS011;31265;49.680;8.608;2023-04-25T12:49:38;3.35;;;1.67;;
45540;SDS011;31265;49.680;8.608;2023-04-25T12:52:07;3.42;;;1.73;;
45540;SDS011;31265;49.680;8.608;2023-04-25T12:54:35;5.00;;;1.20;;
45540;SDS011;31265;49.680;8.608;2023-04-25T12:57:03;2.50;;;1.33;;
45540;SDS011;31265;49.680;8.608;2023-04-25T12:59:31;5.68;;;1.90;;
45540;SDS011;31265;49.680;8.608;2023-04-25T13:02:01;3.90;;;1.25;;
45540;SDS011;31265;49.680;8.608;2023-04-25T13:04:30;3.60;;;1.48;;
45540;SDS011;31265;49.680;8.608;2023-04-25T13:06:58;5.57;;;1.65;;
45540;SDS011;31265;49.680;8.608;2023-04-25T13:09:26;2.85;;;1.45;;
45540;SDS011;31265;49.680;8.608;2023-04-25T13:11:55;6.40;;;1.55;;
45540;SDS011;31265;49.680;8.608;2023-04-25T13:14:25;4.35;;;2.13;;
45540;SDS011;31265;49.680;8.608;2023-04-25T13:16:53;2.55;;;1.40;;
45540;SDS011;31265;49.680;8.608;2023-04-25T13:19:23;5.20;;;1.30;;
45540;SDS011;31265;49.680;8.608;2023-04-25T13:21:52;5.22;;;1.60;;
45540;SDS011;31265;49.680;8.608;2023-04-25T13:24:20;11.13;;;2.28;;
45540;SDS011;31265;49.680;8.608;2023-04-25T13:26:48;5.30;;;2.33;;
45540;SDS011;31265;49.680;8.608;2023-04-25T13:29:17;3.80;;;1.33;;
45540;SDS011;31265;49.680;8.608;2023-04-25T13:31:45;11.50;;;1.98;;
45540;SDS011;31265;49.680;8.608;2023-04-25T13:34:13;4.03;;;1.95;;
45540;SDS011;31265;49.680;8.608;2023-04-25T13:36:43;3.80;;;1.30;;
45540;SDS011;31265;49.680;8.608;2023-04-25T13:39:12;8.20;;;2.15;;
45540;SDS011;31265;49.680;8.608;2023-04-25T13:41:40;1.98;;;1.20;;
45540;SDS011;31265;49.680;8.608;2023-04-25T13:44:08;6.18;;;2.10;;
45540;SDS011;31265;49.680;8.608;2023-04-25T13:46:37;2.67;;;1.00;;
45540;SDS011;31265;49.680;8.608;2023-04-25T13:49:13;5.40;;;1.30;;
45540;SDS011;31265;49.680;8.608;2023-04-25T13:51:43;2.38;;;1.00;;
45540;SDS011;31265;49.680;8.608;2023-04-25T13:54:11;4.13;;;1.13;;
45540;SDS011;31265;49.680;8.608;2023-04-25T13:56:40;2.75;;;0.93;;
45540;SDS011;31265;49.680;8.608;2023-04-25T13:59:09;4.13;;;1.20;;
45540;SDS011;31265;49.680;8.608;2023-04-25T14:01:37;8.48;;;1.75;;
45540;SDS011;31265;49.680;8.608;2023-04-25T14:04:06;4.13;;;1.50;;
45540;SDS011;31265;49.680;8.608;2023-04-25T14:06:34;3.75;;;1.42;;
45540;SDS011;31265;49.680;8.608;2023-04-25T14:09:05;4.03;;;1.95;;
45540;SDS011;31265;49.680;8.608;2023-04-25T14:11:33;2.78;;;1.20;;
45540;SDS011;31265;49.680;8.608;2023-04-25T14:14:02;1.50;;;0.98;;
45540;SDS011;31265;49.680;8.608;2023-04-25T14:16:30;3.58;;;1.27;;
45540;SDS011;31265;49.680;8.608;2023-04-25T14:18:59;2.50;;;1.23;;
45540;SDS011;31265;49.680;8.608;2023-04-25T14:21:28;8.40;;;1.25;;
45540;SDS011;31265;49.680;8.608;2023-04-25T14:23:58;6.13;;;1.38;;
45540;SDS011;31265;49.680;8.608;2023-04-25T14:26:27;3.53;;;1.00;;
45540;SDS011;31265;49.680;8.608;2023-04-25T14:28:56;4.72;;;1.40;;
45540;SDS011;31265;49.680;8.608;2023-04-25T14:31:25;8.27;;;1.33;;
45540;SDS011;31265;49.680;8.608;2023-04-25T14:33:53;3.80;;;1.20;;
45540;SDS011;31265;49.680;8.608;2023-04-25T14:36:25;3.72;;;1.35;;
45540;SDS011;31265;49.680;8.608;2023-04-25T14:38:54;4.22;;;1.20;;
45540;SDS011;31265;49.680;8.608;2023-04-25T14:41:22;4.28;;;1.40;;
45540;SDS011;31265;49.680;8.608;2023-04-25T14:43:53;4.28;;;1.70;;
45540;SDS011;31265;49.680;8.608;2023-04-25T14:46:22;3.08;;;1.10;;
45540;SDS011;31265;49.680;8.608;2023-04-25T14:48:51;4.93;;;1.27;;
45540;SDS011;31265;49.680;8.608;2023-04-25T14:51:20;5.20;;;1.10;;
45540;SDS011;31265;49.680;8.608;2023-04-25T14:53:48;2.85;;;0.90;;
45540;SDS011;31265;49.680;8.608;2023-04-25T14:56:17;3.35;;;1.10;;
45540;SDS011;31265;49.680;8.608;2023-04-25T14:58:45;4.25;;;1.17;;
45540;SDS011;31265;49.680;8.608;2023-04-25T15:01:15;3.45;;;1.20;;
45540;SDS011;31265;49.680;8.608;2023-04-25T15:06:12;9.57;;;1.17;;
45540;SDS011;31265;49.680;8.608;2023-04-25T15:08:40;3.05;;;1.20;;
45540;SDS011;31265;49.680;8.608;2023-04-25T15:11:09;3.53;;;1.25;;
45540;SDS011;31265;49.680;8.608;2023-04-25T15:13:37;2.13;;;1.00;;
45540;SDS011;31265;49.680;8.608;2023-04-25T15:16:07;3.72;;;1.15;;
45540;SDS011;31265;49.680;8.608;2023-04-25T15:18:36;3.65;;;1.00;;
45540;SDS011;31265;49.680;8.608;2023-04-25T15:21:04;3.17;;;0.90;;
45540;SDS011;31265;49.680;8.608;2023-04-25T15:23:33;2.22;;;0.90;;
45540;SDS011;31265;49.680;8.608;2023-04-25T15:26:01;5.70;;;1.00;;
45540;SDS011;31265;49.680;8.608;2023-04-25T15:28:29;3.08;;;0.82;;
45540;SDS011;31265;49.680;8.608;2023-04-25T15:30:58;1.40;;;0.80;;
45540;SDS011;31265;49.680;8.608;2023-04-25T15:33:26;1.15;;;0.75;;
45540;SDS011;31265;49.680;8.608;2023-04-25T15:35:56;2.53;;;0.90;;
45540;SDS011;31265;49.680;8.608;2023-04-25T15:38:25;7.22;;;1.75;;
45540;SDS011;31265;49.680;8.608;2023-04-25T15:40:54;4.05;;;0.95;;
45540;SDS011;31265;49.680;8.608;2023-04-25T15:43:22;2.38;;;1.00;;
45540;SDS011;31265;49.680;8.608;2023-04-25T15:45:50;3.53;;;1.00;;
45540;SDS011;31265;49.680;8.608;2023-04-25T15:48:19;5.38;;;0.73;;